createdAt,value
2023-02-12T00:01:43.457Z,82.90
2023-02-12T00:04:12.326Z,83.00
2023-02-12T00:06:41.517Z,83.00
2023-02-12T00:09:10.512Z,83.00
2023-02-12T00:11:39.390Z,83.00
2023-02-12T00:14:08.286Z,83.00
2023-02-12T00:16:37.254Z,83.30
2023-02-12T00:19:10.648Z,83.30
2023-02-12T00:21:39.582Z,83.30
2023-02-12T00:24:08.859Z,83.30
2023-02-12T00:26:38.225Z,83.10
2023-02-12T00:29:07.157Z,83.00
2023-02-12T00:31:36.127Z,83.10
2023-02-12T00:34:05.093Z,83.20
2023-02-12T00:36:34.700Z,83.00
2023-02-12T00:39:03.839Z,82.90
2023-02-12T00:41:32.908Z,82.90
2023-02-12T00:44:01.958Z,82.60
2023-02-12T00:46:30.948Z,82.80
2023-02-12T00:48:59.922Z,82.50
2023-02-12T00:51:28.783Z,82.50
2023-02-12T00:53:57.722Z,82.00
2023-02-12T00:56:26.766Z,82.30
2023-02-12T00:58:55.648Z,81.90
2023-02-12T01:01:24.595Z,81.60
2023-02-12T01:03:53.496Z,82.00
2023-02-12T01:06:22.418Z,81.60
2023-02-12T01:08:54.782Z,81.40
2023-02-12T01:11:23.847Z,81.40
2023-02-12T01:13:52.816Z,81.00
2023-02-12T01:16:24.545Z,80.90
2023-02-12T01:18:55.995Z,80.30
2023-02-12T01:21:30.635Z,80.30
2023-02-12T01:24:00.443Z,80.20
2023-02-12T01:26:30.982Z,79.60
2023-02-12T01:29:02.789Z,79.30
2023-02-12T01:31:34.610Z,79.10
2023-02-12T01:34:03.690Z,78.80
2023-02-12T01:36:33.104Z,78.60
2023-02-12T01:39:04.263Z,78.30
2023-02-12T01:41:37.082Z,78.10
2023-02-12T01:44:16.575Z,77.90
2023-02-12T01:46:47.056Z,77.80
2023-02-12T01:49:39.137Z,77.50
2023-02-12T01:52:21.289Z,77.20
2023-02-12T01:54:52.092Z,76.90
2023-02-12T01:57:21.627Z,76.70
2023-02-12T01:59:54.507Z,76.50
2023-02-12T02:02:23.541Z,76.30
2023-02-12T02:05:03.219Z,76.10
2023-02-12T02:07:32.752Z,75.80
2023-02-12T02:10:03.277Z,75.70
2023-02-12T02:12:51.106Z,75.20
2023-02-12T02:15:20.202Z,74.80
2023-02-12T02:17:57.026Z,74.40
2023-02-12T02:20:57.017Z,74.40
2023-02-12T02:23:49.863Z,73.50
2023-02-12T02:26:49.537Z,73.10
2023-02-12T02:29:36.673Z,73.50
2023-02-12T02:32:16.612Z,73.00
2023-02-12T02:34:57.406Z,73.60
2023-02-12T02:37:30.564Z,73.30
2023-02-12T02:40:14.669Z,72.90
2023-02-12T02:43:12.300Z,72.70
2023-02-12T02:45:53.098Z,72.50
2023-02-12T02:48:35.674Z,72.30
2023-02-12T02:51:30.564Z,71.60
2023-02-12T02:54:22.392Z,71.70
2023-02-12T02:56:54.408Z,71.70
2023-02-12T02:59:32.985Z,71.40
2023-02-12T03:02:10.457Z,70.70
2023-02-12T03:04:52.571Z,71.00
2023-02-12T03:07:23.562Z,70.70
2023-02-12T03:10:01.028Z,70.60
2023-02-12T03:12:37.097Z,68.70
2023-02-12T03:15:22.960Z,69.20
2023-02-12T03:17:53.426Z,69.20
2023-02-12T03:20:47.459Z,69.80
2023-02-12T03:23:20.886Z,67.90
2023-02-12T03:26:14.339Z,67.10
2023-02-12T03:28:43.275Z,69.50
2023-02-12T03:31:26.117Z,68.70
2023-02-12T03:34:20.435Z,68.20
2023-02-12T03:36:55.690Z,67.60
2023-02-12T03:39:27.487Z,68.50
2023-02-12T03:42:07.152Z,67.80
2023-02-12T03:45:04.597Z,67.10
2023-02-12T03:47:58.056Z,65.90
2023-02-12T03:51:06.774Z,66.60
2023-02-12T03:53:35.791Z,65.90
2023-02-12T03:56:14.901Z,67.50
2023-02-12T03:58:45.671Z,64.00
2023-02-12T04:01:15.492Z,65.60
2023-02-12T04:03:45.019Z,66.60
2023-02-12T04:06:26.885Z,67.00
2023-02-12T04:08:58.319Z,63.10
2023-02-12T04:11:36.361Z,66.60
2023-02-12T04:14:23.496Z,65.30
2023-02-12T04:17:01.940Z,65.90
2023-02-12T04:20:10.626Z,65.50
2023-02-12T04:23:02.160Z,64.50
2023-02-12T04:25:40.100Z,63.80
